createdAt,value
2022-09-17T00:00:08.948Z,5.10
2022-09-17T00:01:08.727Z,5.10
2022-09-17T00:02:09.130Z,4.90
2022-09-17T00:03:08.782Z,5.20
2022-09-17T00:04:08.720Z,5.20
2022-09-17T00:05:08.780Z,4.90
2022-09-17T00:06:09.112Z,5.50
2022-09-17T00:07:09.327Z,5.00
2022-09-17T00:08:08.708Z,5.10
2022-09-17T00:09:09.128Z,5.20
2022-09-17T00:10:08.729Z,5.10
2022-09-17T00:11:09.424Z,5.20
2022-09-17T00:12:09.459Z,5.50
2022-09-17T00:13:08.649Z,5.30
2022-09-17T00:14:08.628Z,4.90
2022-09-17T00:15:09.199Z,5.10
2022-09-17T00:16:09.645Z,4.70
2022-09-17T00:17:08.984Z,4.90
2022-09-17T00:18:08.607Z,5.00
2022-09-17T00:19:08.618Z,5.00
2022-09-17T00:20:08.614Z,5.30
2022-09-17T00:21:08.704Z,5.00
2022-09-17T00:22:08.635Z,5.10
2022-09-17T00:23:08.640Z,5.00
2022-09-17T00:24:08.525Z,4.80
2022-09-17T00:25:08.555Z,4.40
2022-09-17T00:26:08.555Z,4.40
2022-09-17T00:27:08.636Z,4.50
2022-09-17T00:28:08.522Z,4.80
2022-09-17T00:29:08.981Z,4.40
2022-09-17T00:30:08.616Z,4.70
2022-09-17T00:31:08.711Z,4.20
2022-09-17T00:32:08.754Z,4.20
2022-09-17T00:33:08.484Z,4.30
2022-09-17T00:34:08.513Z,4.10
2022-09-17T00:35:08.520Z,4.10
2022-09-17T00:36:08.522Z,4.10
2022-09-17T00:37:08.506Z,4.40
2022-09-17T00:38:08.505Z,4.00
2022-09-17T00:39:08.724Z,3.80
2022-09-17T00:40:08.760Z,3.90
2022-09-17T00:41:08.732Z,4.10
2022-09-17T00:42:08.451Z,4.10
2022-09-17T00:43:08.760Z,4.20
2022-09-17T00:44:08.961Z,4.10
2022-09-17T00:45:08.552Z,3.60
2022-09-17T00:46:08.454Z,3.70
2022-09-17T00:47:08.570Z,3.60
2022-09-17T00:48:09.191Z,3.70
2022-09-17T00:49:09.064Z,3.70
2022-09-17T00:50:08.802Z,3.90
2022-09-17T00:51:08.481Z,3.50
2022-09-17T00:52:09.211Z,4.20
2022-09-17T00:53:09.020Z,4.10
2022-09-17T00:54:08.919Z,4.00
2022-09-17T00:55:09.178Z,3.90
2022-09-17T00:56:08.629Z,4.10
2022-09-17T00:57:08.579Z,3.90
2022-09-17T00:58:08.847Z,4.10
2022-09-17T00:59:08.307Z,4.10
2022-09-17T01:00:08.451Z,4.50
2022-09-17T01:01:08.678Z,4.50
2022-09-17T01:02:08.588Z,4.40
2022-09-17T01:03:08.279Z,4.00
2022-09-17T01:04:08.484Z,4.30
2022-09-17T01:05:08.330Z,4.50
2022-09-17T01:06:08.347Z,4.60
2022-09-17T01:07:08.707Z,4.10
2022-09-17T01:08:08.299Z,4.30
2022-09-17T01:09:09.117Z,4.50
2022-09-17T01:10:08.518Z,4.70
2022-09-17T01:11:08.296Z,4.40
2022-09-17T01:12:08.266Z,4.40
2022-09-17T01:13:08.367Z,4.10
2022-09-17T01:14:08.345Z,3.80
2022-09-17T01:15:08.204Z,4.10
2022-09-17T01:16:09.069Z,4.00
2022-09-17T01:17:08.202Z,4.30
2022-09-17T01:18:08.217Z,4.30
2022-09-17T01:19:08.173Z,4.10
2022-09-17T01:20:08.584Z,4.20
2022-09-17T01:21:08.594Z,4.10
2022-09-17T01:22:08.606Z,4.20
2022-09-17T01:23:08.453Z,4.00
2022-09-17T01:24:08.253Z,3.90
2022-09-17T01:25:08.143Z,3.80
2022-09-17T01:26:08.291Z,3.90
2022-09-17T01:27:08.163Z,3.90
2022-09-17T01:28:08.101Z,4.10
2022-09-17T01:29:08.203Z,4.00
2022-09-17T01:30:08.082Z,3.80
2022-09-17T01:31:08.157Z,3.70
2022-09-17T01:32:08.099Z,3.60
2022-09-17T01:33:08.123Z,3.50
2022-09-17T01:34:08.108Z,3.70
2022-09-17T01:35:08.082Z,3.20
2022-09-17T01:36:08.091Z,3.10
2022-09-17T01:37:08.053Z,3.10
2022-09-17T01:38:09.522Z,3.20
2022-09-17T01:39:08.042Z,3.30
2022-09-17T01:40:08.115Z,3.50
2022-09-17T01:41:08.110Z,3.30
2022-09-17T01:42:08.128Z,3.50
2022-09-17T01:43:08.130Z,3.70
2022-09-17T01:44:08.001Z,4.00
2022-09-17T01:45:08.149Z,3.90
2022-09-17T01:46:08.197Z,4.30
2022-09-17T01:47:08.160Z,4.20
2022-09-17T01:48:08.165Z,5.00
2022-09-17T01:49:08.004Z,4.20
2022-09-17T01:50:07.968Z,5.10
2022-09-17T01:51:07.980Z,5.00
2022-09-17T01:52:08.061Z,5.10
2022-09-17T01:53:07.988Z,5.30
2022-09-17T01:54:07.941Z,4.80
2022-09-17T01:55:08.048Z,5.80
2022-09-17T01:56:08.217Z,6.10
2022-09-17T01:57:08.227Z,6.10
2022-09-17T01:58:08.022Z,6.20
2022-09-17T01:59:07.889Z,6.50
2022-09-17T02:00:08.037Z,6.40
2022-09-17T02:01:08.052Z,6.60
2022-09-17T02:02:07.959Z,7.10
2022-09-17T02:03:08.058Z,6.70
2022-09-17T02:04:07.969Z,7.20
2022-09-17T02:05:07.957Z,7.70
2022-09-17T02:06:07.876Z,7.70
2022-09-17T02:07:08.294Z,8.20
2022-09-17T02:08:08.105Z,7.90
2022-09-17T02:09:09.396Z,8.50
2022-09-17T02:10:08.515Z,8.90
2022-09-17T02:11:07.855Z,9.30
2022-09-17T02:12:07.913Z,9.20
2022-09-17T02:13:08.535Z,8.90
2022-09-17T02:14:08.544Z,9.90
2022-09-17T02:15:07.795Z,10.20
2022-09-17T02:16:07.814Z,10.00
2022-09-17T02:17:09.213Z,10.20
2022-09-17T02:18:07.836Z,10.90
2022-09-17T02:19:07.953Z,10.20
2022-09-17T02:20:07.771Z,10.60
2022-09-17T02:21:07.774Z,10.60
2022-09-17T02:22:07.783Z,10.00
2022-09-17T02:23:07.775Z,10.70
2022-09-17T02:24:07.752Z,9.80
2022-09-17T02:25:08.018Z,10.50
2022-09-17T02:26:07.701Z,10.00
2022-09-17T02:27:07.816Z,10.10
2022-09-17T02:28:07.691Z,10.70
2022-09-17T02:29:07.705Z,11.00
2022-09-17T02:30:07.673Z,10.60
2022-09-17T02:31:07.856Z,10.20
2022-09-17T02:32:07.691Z,9.90
2022-09-17T02:33:07.671Z,9.70
2022-09-17T02:34:07.759Z,9.80
2022-09-17T02:35:07.705Z,9.10
2022-09-17T02:36:07.650Z,8.80
2022-09-17T02:37:07.729Z,9.70
2022-09-17T02:38:07.639Z,9.20
2022-09-17T02:39:07.661Z,9.10
2022-09-17T02:40:07.704Z,9.30
2022-09-17T02:41:07.710Z,8.60
2022-09-17T02:42:07.644Z,8.30
2022-09-17T02:43:07.698Z,8.60
2022-09-17T02:44:07.626Z,8.10
2022-09-17T02:45:08.059Z,8.00
2022-09-17T02:46:07.656Z,7.60
2022-09-17T02:47:07.555Z,8.20
2022-09-17T02:48:07.551Z,7.40
2022-09-17T02:49:07.577Z,7.50
2022-09-17T02:50:07.558Z,8.10
2022-09-17T02:51:07.527Z,7.80
2022-09-17T02:52:07.567Z,7.70
2022-09-17T02:53:07.589Z,7.90
2022-09-17T02:54:07.808Z,7.80
2022-09-17T02:55:07.536Z,7.50
2022-09-17T02:56:08.215Z,7.80
2022-09-17T02:57:07.835Z,7.70
2022-09-17T02:58:07.615Z,7.70
2022-09-17T02:59:08.036Z,8.20
2022-09-17T03:00:08.035Z,7.80
2022-09-17T03:01:08.070Z,7.50
2022-09-17T03:02:07.532Z,7.70
2022-09-17T03:03:07.633Z,8.00
2022-09-17T03:04:07.495Z,7.20
2022-09-17T03:05:07.473Z,7.40
2022-09-17T03:06:07.532Z,7.00
2022-09-17T03:07:07.484Z,7.30
2022-09-17T03:08:07.484Z,6.70
2022-09-17T03:09:07.703Z,7.00
2022-09-17T03:10:07.494Z,7.60
2022-09-17T03:11:07.521Z,7.10
2022-09-17T03:12:07.722Z,7.40
2022-09-17T03:13:07.542Z,7.50
2022-09-17T03:14:07.763Z,7.00
2022-09-17T03:15:07.730Z,7.20
2022-09-17T03:16:07.412Z,7.30
2022-09-17T03:17:07.372Z,7.40
2022-09-17T03:18:07.352Z,7.40
2022-09-17T03:19:07.353Z,7.40
2022-09-17T03:20:07.351Z,8.00
2022-09-17T03:21:07.738Z,7.10
2022-09-17T03:22:07.535Z,7.00
2022-09-17T03:23:07.330Z,7.40
2022-09-17T03:24:07.352Z,7.00
2022-09-17T03:25:07.798Z,7.20
2022-09-17T03:26:07.361Z,7.70
2022-09-17T03:27:07.859Z,6.60
2022-09-17T03:28:07.336Z,7.10
2022-09-17T03:29:07.401Z,7.20
2022-09-17T03:30:07.308Z,7.10
2022-09-17T03:31:07.303Z,6.90
2022-09-17T03:32:07.299Z,6.50
2022-09-17T03:33:07.261Z,6.50
2022-09-17T03:34:07.258Z,6.70
2022-09-17T03:35:07.255Z,6.10
2022-09-17T03:36:07.299Z,6.40
2022-09-17T03:37:07.285Z,6.00
2022-09-17T03:38:07.287Z,6.30
2022-09-17T03:39:07.345Z,6.20
2022-09-17T03:40:07.367Z,6.00
2022-09-17T03:41:07.836Z,6.20
2022-09-17T03:42:07.190Z,5.90
2022-09-17T03:43:07.309Z,6.10
2022-09-17T03:44:07.226Z,5.70
2022-09-17T03:45:07.326Z,6.00
2022-09-17T03:46:07.404Z,5.60
2022-09-17T03:47:07.427Z,5.80
2022-09-17T03:48:07.423Z,5.30
2022-09-17T03:49:07.196Z,5.20
2022-09-17T03:50:07.438Z,5.50
2022-09-17T03:51:07.144Z,6.10
2022-09-17T03:52:07.684Z,5.50
2022-09-17T03:53:07.105Z,5.40
2022-09-17T03:54:07.119Z,6.10
2022-09-17T03:55:07.504Z,5.30
2022-09-17T03:56:07.183Z,5.30
2022-09-17T03:57:07.116Z,5.20
2022-09-17T03:58:07.523Z,5.50
2022-09-17T03:59:07.143Z,5.20
2022-09-17T04:00:07.073Z,5.30
2022-09-17T04:01:07.046Z,5.90
2022-09-17T04:02:07.330Z,5.30
2022-09-17T04:03:07.433Z,5.70
2022-09-17T04:04:07.123Z,5.20
2022-09-17T04:05:07.632Z,5.60
2022-09-17T04:06:07.250Z,5.10
2022-09-17T04:07:07.152Z,6.00
2022-09-17T04:08:07.071Z,5.20
2022-09-17T04:09:07.078Z,5.50
2022-09-17T04:10:07.305Z,5.80
2022-09-17T04:11:07.303Z,6.00
2022-09-17T04:12:07.550Z,5.50
2022-09-17T04:13:07.290Z,6.00
2022-09-17T04:14:07.185Z,5.50
2022-09-17T04:15:07.092Z,5.50
2022-09-17T04:16:07.059Z,5.90
2022-09-17T04:17:06.984Z,6.00
2022-09-17T04:18:06.931Z,5.80
2022-09-17T04:19:06.992Z,5.40
2022-09-17T04:20:06.941Z,5.40
2022-09-17T04:21:06.980Z,5.00
2022-09-17T04:22:07.058Z,5.50
2022-09-17T04:23:07.193Z,5.10
2022-09-17T04:24:06.937Z,4.80
2022-09-17T04:25:07.191Z,4.90
2022-09-17T04:26:07.029Z,5.50
2022-09-17T04:27:06.897Z,5.20
2022-09-17T04:28:07.211Z,5.20
2022-09-17T04:29:06.856Z,5.00
2022-09-17T04:30:06.859Z,5.20
2022-09-17T04:31:06.887Z,4.80
2022-09-17T04:32:06.866Z,4.60
2022-09-17T04:33:06.867Z,4.40
2022-09-17T04:34:07.048Z,4.20
2022-09-17T04:35:06.848Z,4.60
2022-09-17T04:36:06.897Z,4.60
2022-09-17T04:37:06.836Z,4.50
2022-09-17T04:38:07.096Z,4.60
2022-09-17T04:39:07.297Z,4.20
2022-09-17T04:40:08.242Z,4.40
2022-09-17T04:41:07.293Z,4.30
2022-09-17T04:42:07.314Z,4.30
2022-09-17T04:43:07.403Z,4.70
2022-09-17T04:44:07.527Z,4.40
2022-09-17T04:45:07.264Z,4.30
2022-09-17T04:46:06.798Z,4.50
2022-09-17T04:47:06.896Z,4.00
2022-09-17T04:48:06.771Z,4.40
2022-09-17T04:49:06.705Z,4.20
2022-09-17T04:50:06.713Z,4.10
2022-09-17T04:51:06.731Z,4.10
2022-09-17T04:52:06.732Z,4.00
2022-09-17T04:53:06.932Z,4.20
2022-09-17T04:54:06.942Z,4.20
2022-09-17T04:55:06.952Z,4.40
2022-09-17T04:56:06.697Z,3.80
2022-09-17T04:57:06.963Z,3.60
2022-09-17T04:58:06.694Z,3.50
2022-09-17T04:59:06.780Z,4.00
2022-09-17T05:00:06.656Z,3.70
2022-09-17T05:01:06.869Z,4.00
2022-09-17T05:02:06.923Z,3.90
2022-09-17T05:03:06.943Z,3.50
2022-09-17T05:04:06.660Z,3.70
2022-09-17T05:05:06.621Z,3.70
2022-09-17T05:06:07.042Z,3.60
2022-09-17T05:07:07.300Z,4.20
2022-09-17T05:08:06.635Z,3.60
2022-09-17T05:09:06.580Z,3.50
2022-09-17T05:10:06.639Z,3.20
2022-09-17T05:11:06.650Z,3.60
2022-09-17T05:12:06.859Z,3.70
2022-09-17T05:13:06.860Z,3.20
2022-09-17T05:14:08.039Z,3.30
2022-09-17T05:15:06.711Z,3.40
2022-09-17T05:16:06.737Z,3.50
2022-09-17T05:17:06.893Z,3.70
2022-09-17T05:18:06.581Z,3.10
2022-09-17T05:19:06.698Z,3.50
2022-09-17T05:20:06.556Z,3.10
2022-09-17T05:21:06.519Z,3.40
2022-09-17T05:22:06.569Z,3.30
2022-09-17T05:23:06.737Z,3.30
2022-09-17T05:24:06.476Z,3.40
2022-09-17T05:25:06.556Z,3.30
2022-09-17T05:26:06.469Z,3.60
2022-09-17T05:27:06.468Z,3.00
2022-09-17T05:28:06.446Z,3.30
2022-09-17T05:29:06.435Z,2.80
2022-09-17T05:30:06.774Z,3.40
2022-09-17T05:31:06.848Z,3.00
2022-09-17T05:32:06.425Z,2.90
2022-09-17T05:33:06.425Z,3.20
2022-09-17T05:34:06.424Z,2.70
2022-09-17T05:35:06.465Z,3.00
2022-09-17T05:36:06.503Z,2.80
2022-09-17T05:37:06.384Z,2.80
2022-09-17T05:38:06.587Z,3.40
2022-09-17T05:39:06.733Z,2.90
2022-09-17T05:40:06.709Z,3.00
2022-09-17T05:41:06.406Z,2.80
2022-09-17T05:42:07.345Z,2.90
2022-09-17T05:43:06.363Z,3.00
2022-09-17T05:44:06.613Z,2.70
2022-09-17T05:45:06.454Z,2.90
2022-09-17T05:46:06.609Z,3.10
2022-09-17T05:47:07.513Z,2.50
2022-09-17T05:48:06.345Z,2.90
2022-09-17T05:49:06.351Z,2.50
2022-09-17T05:50:06.301Z,2.60
2022-09-17T05:51:06.351Z,2.40
2022-09-17T05:52:06.311Z,2.60
2022-09-17T05:53:06.310Z,3.50
2022-09-17T05:54:06.339Z,2.50
2022-09-17T05:55:06.352Z,2.50
2022-09-17T05:56:06.320Z,2.60
2022-09-17T05:57:06.554Z,2.80
2022-09-17T05:58:06.377Z,2.80
2022-09-17T05:59:06.397Z,2.50
2022-09-17T06:00:06.379Z,2.90
2022-09-17T06:01:06.568Z,2.80
2022-09-17T06:02:06.329Z,2.50
2022-09-17T06:03:06.591Z,3.00
2022-09-17T06:04:06.212Z,2.80
2022-09-17T06:05:06.378Z,2.60
2022-09-17T06:06:06.379Z,2.60
2022-09-17T06:07:06.612Z,2.70
2022-09-17T06:08:06.619Z,2.80
2022-09-17T06:09:06.636Z,2.70
2022-09-17T06:10:06.407Z,3.00
2022-09-17T06:11:06.208Z,2.60
2022-09-17T06:12:06.167Z,2.90
2022-09-17T06:13:06.256Z,2.80
2022-09-17T06:14:06.276Z,2.90
2022-09-17T06:15:06.279Z,2.50
2022-09-17T06:16:06.491Z,2.50
2022-09-17T06:17:06.481Z,2.30
2022-09-17T06:18:06.469Z,2.40
2022-09-17T06:19:06.706Z,2.60
2022-09-17T06:20:06.524Z,2.30
2022-09-17T06:21:06.694Z,2.40
2022-09-17T06:22:06.702Z,2.70
2022-09-17T06:23:06.085Z,3.00
2022-09-17T06:24:06.723Z,2.60
2022-09-17T06:25:06.812Z,2.60
2022-09-17T06:26:06.069Z,2.50
2022-09-17T06:27:06.064Z,2.40
2022-09-17T06:28:06.566Z,2.20
2022-09-17T06:29:06.366Z,2.20
2022-09-17T06:30:06.016Z,2.40
2022-09-17T06:31:06.062Z,2.40
2022-09-17T06:32:06.003Z,2.20
2022-09-17T06:33:06.036Z,2.50
2022-09-17T06:34:06.056Z,2.10
2022-09-17T06:35:06.003Z,2.30
2022-09-17T06:36:09.612Z,2.40
2022-09-17T06:37:06.944Z,2.30
2022-09-17T06:38:07.108Z,2.40
2022-09-17T06:39:05.989Z,2.30
2022-09-17T06:40:06.035Z,2.20
2022-09-17T06:41:06.018Z,2.40
2022-09-17T06:42:06.001Z,2.10
2022-09-17T06:43:05.971Z,2.50
2022-09-17T06:44:06.060Z,2.40
2022-09-17T06:45:10.144Z,2.20
2022-09-17T06:46:06.278Z,2.00
2022-09-17T06:47:05.921Z,2.30
2022-09-17T06:48:05.921Z,2.10
2022-09-17T06:49:06.050Z,2.30
2022-09-17T06:50:05.899Z,2.10
2022-09-17T06:51:05.899Z,2.80
2022-09-17T06:52:06.070Z,2.10
2022-09-17T06:53:05.958Z,2.50
2022-09-17T06:54:06.294Z,2.10
2022-09-17T06:55:06.301Z,2.00
2022-09-17T06:56:06.965Z,2.30
2022-09-17T06:57:05.889Z,2.60
2022-09-17T06:58:05.862Z,2.70
2022-09-17T06:59:06.114Z,2.30
2022-09-17T07:00:05.825Z,2.20
2022-09-17T07:01:06.063Z,2.10
2022-09-17T07:02:05.860Z,2.10
2022-09-17T07:03:06.136Z,2.10
2022-09-17T07:04:06.357Z,2.30
2022-09-17T07:05:05.788Z,2.00
2022-09-17T07:06:05.778Z,2.20
2022-09-17T07:07:05.777Z,2.40
2022-09-17T07:08:06.388Z,2.00
2022-09-17T07:09:10.412Z,2.30
2022-09-17T07:10:06.025Z,2.10
2022-09-17T07:11:05.836Z,2.20
2022-09-17T07:12:05.743Z,2.10
2022-09-17T07:13:06.465Z,2.10
2022-09-17T07:14:05.854Z,2.40
2022-09-17T07:15:06.004Z,2.10
2022-09-17T07:16:06.096Z,1.80
2022-09-17T07:17:05.988Z,2.00
2022-09-17T07:18:06.494Z,1.80
2022-09-17T07:19:06.959Z,2.20
2022-09-17T07:20:05.815Z,1.80
2022-09-17T07:21:06.529Z,1.90
2022-09-17T07:22:06.524Z,2.10
2022-09-17T07:23:06.323Z,2.00
2022-09-17T07:24:05.663Z,1.90
2022-09-17T07:25:05.672Z,2.00
2022-09-17T07:26:05.682Z,2.20
2022-09-17T07:27:05.745Z,2.00
2022-09-17T07:28:05.742Z,1.70
2022-09-17T07:29:05.901Z,2.10
2022-09-17T07:30:05.903Z,1.90
2022-09-17T07:31:05.993Z,2.00
2022-09-17T07:32:05.770Z,1.60
2022-09-17T07:33:05.626Z,2.20
2022-09-17T07:34:05.592Z,2.30
2022-09-17T07:35:05.602Z,1.90
2022-09-17T07:36:05.751Z,2.20
2022-09-17T07:37:05.572Z,2.10
2022-09-17T07:38:05.722Z,2.10
2022-09-17T07:39:05.763Z,2.00
2022-09-17T07:40:05.615Z,2.10
2022-09-17T07:41:05.562Z,1.80
2022-09-17T07:42:05.529Z,1.90
2022-09-17T07:43:06.011Z,2.10
2022-09-17T07:44:06.011Z,2.40
2022-09-17T07:45:06.998Z,1.90
2022-09-17T07:46:05.604Z,2.30
2022-09-17T07:47:05.500Z,2.10
2022-09-17T07:48:05.511Z,2.00
2022-09-17T07:49:05.493Z,1.80
2022-09-17T07:50:06.432Z,2.00
2022-09-17T07:51:06.989Z,2.30
2022-09-17T07:52:05.465Z,2.00
2022-09-17T07:53:05.548Z,2.20
2022-09-17T07:54:05.549Z,2.00
2022-09-17T07:55:05.558Z,1.90
2022-09-17T07:56:09.751Z,1.80
2022-09-17T07:57:05.588Z,2.10
2022-09-17T07:58:05.538Z,2.10
2022-09-17T07:59:05.627Z,1.80
2022-09-17T08:00:05.448Z,2.10
2022-09-17T08:01:05.428Z,2.00
2022-09-17T08:02:05.581Z,1.70
2022-09-17T08:03:05.534Z,1.60
2022-09-17T08:04:05.506Z,2.00
2022-09-17T08:05:05.527Z,2.20
2022-09-17T08:06:05.517Z,2.30
2022-09-17T08:07:05.528Z,2.10
2022-09-17T08:08:05.615Z,2.00
2022-09-17T08:09:05.615Z,2.10
2022-09-17T08:10:05.407Z,1.90
2022-09-17T08:11:05.616Z,1.70
2022-09-17T08:12:05.346Z,1.70
2022-09-17T08:13:05.303Z,1.90
2022-09-17T08:14:05.786Z,2.10
2022-09-17T08:15:05.787Z,1.90
2022-09-17T08:16:05.785Z,1.70
2022-09-17T08:17:05.779Z,1.90
2022-09-17T08:18:05.286Z,2.00
2022-09-17T08:19:05.331Z,2.10
2022-09-17T08:20:05.801Z,2.00
2022-09-17T08:21:05.884Z,1.90
2022-09-17T08:22:05.291Z,1.60
2022-09-17T08:23:05.713Z,2.00
2022-09-17T08:24:05.505Z,1.90
2022-09-17T08:25:05.874Z,1.80
2022-09-17T08:26:05.778Z,2.20
2022-09-17T08:27:05.386Z,2.10
2022-09-17T08:28:05.255Z,2.40
2022-09-17T08:29:05.663Z,2.10
2022-09-17T08:30:05.203Z,1.80
2022-09-17T08:31:05.249Z,2.00
2022-09-17T08:32:05.974Z,2.00
2022-09-17T08:33:05.192Z,2.00
2022-09-17T08:34:05.198Z,2.00
2022-09-17T08:35:05.313Z,2.10
2022-09-17T08:36:05.312Z,1.80
2022-09-17T08:37:05.323Z,1.90
2022-09-17T08:38:05.431Z,2.30
2022-09-17T08:39:05.426Z,2.00
2022-09-17T08:40:05.590Z,1.50
2022-09-17T08:41:05.121Z,1.80
2022-09-17T08:42:05.145Z,2.00
2022-09-17T08:43:05.183Z,2.10
2022-09-17T08:44:05.152Z,1.50
2022-09-17T08:45:05.289Z,1.80
2022-09-17T08:46:05.447Z,1.80
2022-09-17T08:47:05.383Z,1.70
2022-09-17T08:48:05.499Z,1.70
2022-09-17T08:49:05.180Z,1.90
2022-09-17T08:50:05.600Z,1.90
2022-09-17T08:51:08.473Z,1.80
2022-09-17T08:52:05.455Z,1.50
2022-09-17T08:53:05.105Z,1.60
2022-09-17T08:54:05.509Z,1.70
2022-09-17T08:55:05.443Z,1.70
2022-09-17T08:56:05.741Z,1.80
2022-09-17T08:57:05.849Z,1.80
2022-09-17T08:58:05.816Z,1.60
2022-09-17T08:59:05.137Z,1.90
2022-09-17T09:00:05.748Z,1.60
2022-09-17T09:01:05.973Z,1.90
2022-09-17T09:02:05.374Z,1.50
2022-09-17T09:03:05.344Z,1.70
2022-09-17T09:04:05.688Z,2.10
2022-09-17T09:05:05.588Z,1.90
2022-09-17T09:06:09.898Z,1.80
2022-09-17T09:07:04.955Z,2.00
2022-09-17T09:08:04.947Z,1.70
2022-09-17T09:09:05.202Z,1.50
2022-09-17T09:10:05.529Z,1.30
2022-09-17T09:11:04.918Z,1.60
2022-09-17T09:12:05.450Z,1.90
2022-09-17T09:13:05.452Z,1.80
2022-09-17T09:14:04.916Z,1.60
2022-09-17T09:15:04.946Z,2.00
2022-09-17T09:16:04.933Z,1.70
2022-09-17T09:17:04.895Z,1.70
2022-09-17T09:18:04.865Z,1.70
2022-09-17T09:19:04.880Z,1.50
2022-09-17T09:20:04.976Z,1.50
2022-09-17T09:21:04.985Z,1.60
2022-09-17T09:22:04.994Z,1.70
2022-09-17T09:23:05.095Z,1.60
2022-09-17T09:24:05.078Z,1.60
2022-09-17T09:25:04.837Z,1.50
2022-09-17T09:26:04.815Z,1.80
2022-09-17T09:27:05.025Z,1.70
2022-09-17T09:28:05.131Z,1.70
2022-09-17T09:29:04.845Z,1.50
2022-09-17T09:30:04.774Z,1.50
2022-09-17T09:31:04.795Z,1.50
2022-09-17T09:32:15.199Z,1.60
2022-09-17T09:33:04.763Z,1.30
2022-09-17T09:34:04.963Z,2.00
2022-09-17T09:35:04.764Z,2.10
2022-09-17T09:36:04.767Z,1.80
2022-09-17T09:37:04.990Z,1.80
2022-09-17T09:38:05.031Z,1.40
2022-09-17T09:39:04.892Z,1.50
2022-09-17T09:40:05.250Z,1.70
2022-09-17T09:41:04.713Z,1.50
2022-09-17T09:42:04.732Z,1.70
2022-09-17T09:43:04.951Z,1.30
2022-09-17T09:44:05.760Z,1.80
2022-09-17T09:45:05.748Z,1.60
2022-09-17T09:46:04.839Z,1.50
2022-09-17T09:47:04.824Z,1.60
2022-09-17T09:48:04.642Z,1.50
2022-09-17T09:49:05.267Z,1.70
2022-09-17T09:50:04.631Z,1.40
2022-09-17T09:51:06.854Z,1.40
2022-09-17T09:52:05.300Z,1.30
2022-09-17T09:53:05.182Z,1.30
2022-09-17T09:54:04.610Z,1.50
2022-09-17T09:55:04.619Z,1.70
2022-09-17T09:56:04.592Z,1.60
2022-09-17T09:57:04.642Z,1.50
2022-09-17T09:58:04.591Z,1.30
2022-09-17T09:59:04.641Z,1.60
2022-09-17T10:00:04.609Z,1.70
2022-09-17T10:01:04.588Z,1.50
2022-09-17T10:02:04.632Z,1.50
2022-09-17T10:03:04.621Z,1.30
2022-09-17T10:04:04.660Z,1.50
2022-09-17T10:05:04.564Z,1.50
2022-09-17T10:06:04.661Z,1.60
2022-09-17T10:07:04.678Z,1.50
2022-09-17T10:08:04.580Z,1.20
2022-09-17T10:09:04.679Z,1.40
2022-09-17T10:10:04.492Z,1.60
2022-09-17T10:11:04.518Z,1.50
2022-09-17T10:12:04.698Z,1.30
2022-09-17T10:13:04.560Z,1.20
2022-09-17T10:14:08.009Z,1.50
2022-09-17T10:15:04.528Z,1.30
2022-09-17T10:16:04.572Z,1.40
2022-09-17T10:17:04.837Z,1.30
2022-09-17T10:18:04.448Z,1.20
2022-09-17T10:19:04.536Z,1.10
2022-09-17T10:20:04.659Z,1.20
2022-09-17T10:21:04.457Z,1.50
2022-09-17T10:22:04.465Z,1.00
2022-09-17T10:23:04.887Z,1.30
2022-09-17T10:24:04.944Z,1.60
2022-09-17T10:25:04.407Z,1.30
2022-09-17T10:26:04.697Z,1.20
2022-09-17T10:27:04.395Z,1.30
2022-09-17T10:28:04.396Z,1.40
2022-09-17T10:29:04.355Z,0.70
2022-09-17T10:30:04.349Z,1.20
2022-09-17T10:31:08.630Z,1.10
2022-09-17T10:32:04.325Z,0.90
2022-09-17T10:33:04.335Z,1.20
2022-09-17T10:34:04.346Z,1.10
2022-09-17T10:35:04.365Z,1.00
2022-09-17T10:36:04.452Z,1.20
2022-09-17T10:37:04.311Z,1.10
2022-09-17T10:38:04.316Z,1.20
2022-09-17T10:39:04.575Z,1.00
2022-09-17T10:40:04.611Z,1.10
2022-09-17T10:41:04.384Z,1.30
2022-09-17T10:42:04.397Z,0.90
2022-09-17T10:43:04.485Z,1.30
2022-09-17T10:44:04.845Z,1.00
2022-09-17T10:45:04.504Z,1.30
2022-09-17T10:46:05.106Z,1.00
2022-09-17T10:47:04.668Z,1.40
2022-09-17T10:48:05.054Z,1.10
2022-09-17T10:49:05.054Z,1.10
2022-09-17T10:50:04.250Z,1.20
2022-09-17T10:52:16.736Z,0.90
2022-09-17T10:53:16.755Z,1.20
2022-09-17T10:54:16.744Z,0.90
2022-09-17T10:55:16.334Z,1.10
2022-09-17T10:56:16.956Z,1.10
2022-09-17T10:57:16.765Z,1.20
2022-09-17T10:58:16.766Z,1.20
2022-09-17T10:59:16.977Z,1.20
2022-09-17T11:00:17.221Z,1.30
2022-09-17T11:01:17.105Z,1.50
2022-09-17T11:02:16.472Z,1.20
2022-09-17T11:03:16.594Z,1.10
2022-09-17T11:04:17.013Z,1.40
2022-09-17T11:05:17.183Z,1.60
2022-09-17T11:06:16.223Z,1.10
2022-09-17T11:07:16.296Z,1.10
2022-09-17T11:08:16.834Z,1.20
2022-09-17T11:09:17.052Z,1.10
2022-09-17T11:10:17.241Z,1.10
2022-09-17T11:11:16.254Z,1.10
2022-09-17T11:12:16.155Z,1.30
2022-09-17T11:13:16.184Z,1.00
2022-09-17T11:14:16.179Z,0.90
2022-09-17T11:15:16.220Z,1.10
2022-09-17T11:16:16.325Z,1.00
2022-09-17T11:17:16.385Z,1.10
2022-09-17T11:18:16.481Z,1.10
2022-09-17T11:19:16.591Z,1.00
2022-09-17T11:20:16.223Z,0.90
2022-09-17T11:21:16.233Z,1.10
2022-09-17T11:22:16.311Z,0.80
2022-09-17T11:23:16.721Z,1.10
2022-09-17T11:24:16.469Z,0.90
2022-09-17T11:25:16.122Z,1.00
2022-09-17T11:26:16.744Z,0.90
2022-09-17T11:27:16.314Z,1.20
2022-09-17T11:28:16.961Z,1.30
2022-09-17T11:29:16.172Z,1.20
2022-09-17T11:30:16.187Z,1.20
2022-09-17T11:31:18.385Z,0.90
2022-09-17T11:32:16.182Z,1.30
2022-09-17T11:33:16.223Z,1.20
2022-09-17T11:34:16.180Z,1.10
2022-09-17T11:35:15.983Z,1.20
2022-09-17T11:36:16.330Z,1.00
2022-09-17T11:37:15.999Z,1.20
2022-09-17T11:38:15.969Z,1.30
2022-09-17T11:39:16.009Z,1.10
2022-09-17T11:40:15.988Z,1.00
2022-09-17T11:41:16.019Z,0.90
2022-09-17T11:42:15.929Z,1.20
2022-09-17T11:43:15.960Z,0.80
2022-09-17T11:44:15.908Z,0.70
2022-09-17T11:45:16.008Z,0.90
2022-09-17T11:46:15.955Z,0.70
2022-09-17T11:47:15.938Z,0.60
2022-09-17T11:48:17.055Z,0.90
2022-09-17T11:49:15.887Z,0.90
2022-09-17T11:50:15.944Z,0.90
2022-09-17T11:51:16.087Z,0.90
2022-09-17T11:52:15.870Z,0.90
2022-09-17T11:53:16.137Z,1.10
2022-09-17T11:54:16.147Z,0.90
2022-09-17T11:55:16.120Z,0.90
2022-09-17T11:56:16.777Z,0.90
2022-09-17T11:57:16.130Z,1.00
2022-09-17T11:58:16.160Z,1.00
2022-09-17T11:59:16.137Z,0.90
2022-09-17T12:00:16.271Z,1.00
2022-09-17T12:01:15.798Z,1.00
2022-09-17T12:02:16.235Z,0.90
2022-09-17T12:03:16.206Z,0.80
2022-09-17T12:04:15.806Z,1.00
2022-09-17T12:05:16.200Z,1.00
2022-09-17T12:06:15.979Z,0.90
2022-09-17T12:07:15.786Z,0.90
2022-09-17T12:08:16.198Z,0.80
2022-09-17T12:09:16.206Z,0.80
2022-09-17T12:10:15.844Z,0.80
2022-09-17T12:11:16.258Z,0.80
2022-09-17T12:12:37.818Z,0.90
2022-09-17T12:13:16.276Z,0.80
2022-09-17T12:14:16.278Z,1.00
2022-09-17T12:15:15.701Z,0.80
2022-09-17T12:16:15.735Z,0.90
2022-09-17T12:17:15.686Z,0.70
2022-09-17T12:18:32.880Z,0.80
2022-09-17T12:19:15.676Z,0.90
2022-09-17T12:20:15.656Z,1.00
2022-09-17T12:21:16.494Z,1.00
2022-09-17T12:22:15.726Z,0.80
2022-09-17T12:23:15.708Z,0.70
2022-09-17T12:24:15.693Z,0.80
2022-09-17T12:25:15.795Z,0.70
2022-09-17T12:26:15.752Z,0.80
2022-09-17T12:27:15.726Z,0.70
2022-09-17T12:28:15.797Z,1.00
2022-09-17T12:29:15.809Z,1.10
2022-09-17T12:30:19.302Z,0.80
2022-09-17T12:31:15.821Z,1.20
2022-09-17T12:32:15.956Z,1.20
2022-09-17T12:33:15.837Z,0.70
2022-09-17T12:34:15.966Z,0.80
2022-09-17T12:35:15.615Z,0.90
2022-09-17T12:36:15.966Z,0.80
2022-09-17T12:37:16.194Z,0.80
2022-09-17T12:38:15.574Z,0.70
2022-09-17T12:39:15.574Z,0.80
2022-09-17T12:40:15.732Z,0.90
2022-09-17T12:41:15.593Z,1.00
2022-09-17T12:42:15.534Z,0.90
2022-09-17T12:43:15.602Z,0.80
2022-09-17T12:44:15.604Z,0.70
2022-09-17T12:45:15.622Z,0.90
2022-09-17T12:46:15.546Z,0.90
2022-09-17T12:47:15.632Z,0.80
2022-09-17T12:48:15.634Z,0.90
2022-09-17T12:49:15.655Z,0.70
2022-09-17T12:50:15.443Z,0.70
2022-09-17T12:51:15.682Z,0.50
2022-09-17T12:52:15.494Z,0.90
2022-09-17T12:53:15.662Z,0.90
2022-09-17T12:54:15.503Z,0.50
2022-09-17T12:55:15.684Z,1.00
2022-09-17T12:56:15.472Z,0.60
2022-09-17T12:57:15.522Z,0.70
2022-09-17T12:58:15.702Z,0.60
2022-09-17T12:59:15.713Z,0.60
2022-09-17T13:00:15.777Z,0.70
2022-09-17T13:01:15.548Z,0.70
2022-09-17T13:02:15.620Z,0.90
2022-09-17T13:03:15.521Z,0.80
2022-09-17T13:04:15.542Z,0.60
2022-09-17T13:05:15.541Z,0.60
2022-09-17T13:06:15.561Z,0.70
2022-09-17T13:07:15.412Z,0.80
2022-09-17T13:08:15.420Z,0.70
2022-09-17T13:09:15.772Z,0.70
2022-09-17T13:10:15.778Z,0.70
2022-09-17T13:11:15.782Z,0.90
2022-09-17T13:12:15.580Z,0.80
2022-09-17T13:13:15.311Z,0.70
2022-09-17T13:14:15.439Z,1.00
2022-09-17T13:15:15.876Z,0.80
2022-09-17T13:16:17.100Z,0.80
2022-09-17T13:17:15.821Z,0.70
2022-09-17T13:18:31.118Z,1.00